createdAt,value
2017-01-20T00:00:57.450Z,1031.22
2017-01-20T00:02:08.178Z,1031.24
2017-01-20T00:03:18.925Z,1031.23
2017-01-20T00:04:29.662Z,1031.28
2017-01-20T00:05:40.415Z,1031.27
2017-01-20T00:06:51.137Z,1031.27
2017-01-20T00:08:01.873Z,1031.29
2017-01-20T00:09:12.605Z,1031.26
2017-01-20T00:10:23.340Z,1031.34
2017-01-20T00:11:34.067Z,1031.27
2017-01-20T00:12:44.785Z,1031.3
2017-01-20T00:13:55.531Z,1031.29
2017-01-20T00:15:06.298Z,1031.29
2017-01-20T00:16:17.027Z,1031.27
2017-01-20T00:17:27.723Z,1031.26
2017-01-20T00:18:38.444Z,1031.23
2017-01-20T00:19:49.165Z,1031.23
2017-01-20T00:20:59.885Z,1031.26
2017-01-20T00:22:10.625Z,1031.28
2017-01-20T00:23:21.349Z,1031.26
2017-01-20T00:24:32.041Z,1031.25
2017-01-20T00:25:42.770Z,1031.23
2017-01-20T00:26:53.508Z,1031.23
2017-01-20T00:28:04.212Z,1031.24
2017-01-20T00:29:14.936Z,1031.22
2017-01-20T00:30:25.647Z,1031.19
2017-01-20T00:31:36.355Z,1031.19
2017-01-20T00:32:47.067Z,1031.19
2017-01-20T00:33:57.821Z,1031.18
2017-01-20T00:35:08.542Z,1031.18
2017-01-20T00:36:19.268Z,1031.14
2017-01-20T00:37:30.005Z,1031.15
2017-01-20T00:38:40.702Z,1031.13
2017-01-20T00:39:51.390Z,1031.16
2017-01-20T00:41:02.121Z,1031.12
2017-01-20T00:42:12.843Z,1031.14
2017-01-20T00:43:23.585Z,1031.13
2017-01-20T00:44:34.298Z,1031.11
2017-01-20T00:45:45.023Z,1031.07
2017-01-20T00:46:55.753Z,1031.04
2017-01-20T00:48:06.498Z,1030.95
2017-01-20T00:49:17.244Z,1030.97
2017-01-20T00:50:27.954Z,1031.03
2017-01-20T00:51:38.663Z,1030.99
2017-01-20T00:52:49.782Z,1030.99
2017-01-20T00:54:00.542Z,1030.98
2017-01-20T00:55:11.249Z,1030.97
2017-01-20T00:56:21.991Z,1030.95
2017-01-20T00:57:32.713Z,1030.94
2017-01-20T00:58:43.414Z,1030.89
2017-01-20T00:59:54.155Z,1030.92
2017-01-20T01:01:04.876Z,1030.92
2017-01-20T01:02:15.599Z,1030.89
2017-01-20T01:03:26.342Z,1030.94
2017-01-20T01:04:37.038Z,1030.96
2017-01-20T01:05:47.762Z,1030.94
2017-01-20T01:06:58.498Z,1030.96
2017-01-20T01:08:09.222Z,1030.93
2017-01-20T01:09:19.950Z,1030.94
2017-01-20T01:10:30.686Z,1030.94
2017-01-20T01:11:41.410Z,1030.91
2017-01-20T01:12:52.135Z,1030.91
2017-01-20T01:14:02.852Z,1030.88
2017-01-20T01:15:13.594Z,1030.87
2017-01-20T01:16:24.322Z,1030.86
2017-01-20T01:17:35.043Z,1030.85
2017-01-20T01:18:45.788Z,1030.85
2017-01-20T01:19:56.534Z,1030.87
2017-01-20T01:21:07.633Z,1030.87
2017-01-20T01:22:18.372Z,1030.86
2017-01-20T01:23:29.090Z,1030.88
2017-01-20T01:24:39.795Z,1030.83
2017-01-20T01:25:50.516Z,1030.85
2017-01-20T01:27:01.238Z,1030.86
2017-01-20T01:28:11.956Z,1030.88
2017-01-20T01:29:22.681Z,1030.88
2017-01-20T01:30:33.402Z,1030.84
2017-01-20T01:31:44.142Z,1030.86
2017-01-20T01:32:54.864Z,1030.87
2017-01-20T01:34:05.585Z,1030.84
2017-01-20T01:35:16.328Z,1030.8
2017-01-20T01:36:27.457Z,1030.83
2017-01-20T01:37:38.176Z,1030.78
2017-01-20T01:38:48.912Z,1030.81
2017-01-20T01:39:59.995Z,1030.82
2017-01-20T01:41:10.733Z,1030.81
2017-01-20T01:42:21.453Z,1030.79
2017-01-20T01:43:32.179Z,1030.8
2017-01-20T01:44:42.930Z,1030.77
2017-01-20T01:45:53.674Z,1030.76
2017-01-20T01:47:04.412Z,1030.78
2017-01-20T01:48:15.137Z,1030.75
2017-01-20T01:49:25.861Z,1030.72
2017-01-20T01:50:36.607Z,1030.75
2017-01-20T01:51:47.353Z,1030.71
2017-01-20T01:52:58.071Z,1030.74
2017-01-20T01:54:08.810Z,1030.72
2017-01-20T01:55:19.531Z,1030.69
2017-01-20T01:56:30.235Z,1030.69
2017-01-20T01:57:40.922Z,1030.73
2017-01-20T01:58:51.647Z,1030.64
2017-01-20T02:00:02.776Z,1030.65
2017-01-20T02:01:13.513Z,1030.6
2017-01-20T02:02:24.218Z,1030.63
2017-01-20T02:03:34.927Z,1030.6
2017-01-20T02:04:45.652Z,1030.57
2017-01-20T02:05:56.397Z,1030.6
2017-01-20T02:07:07.116Z,1030.56
2017-01-20T02:08:17.825Z,1030.57
2017-01-20T02:09:28.569Z,1030.54
2017-01-20T02:10:39.315Z,1030.49
2017-01-20T02:11:50.057Z,1030.5
2017-01-20T02:13:00.808Z,1030.51
2017-01-20T02:14:11.542Z,1030.54
2017-01-20T02:15:22.270Z,1030.54
2017-01-20T02:16:32.991Z,1030.5
2017-01-20T02:17:43.712Z,1030.5
2017-01-20T02:18:54.433Z,1030.52
2017-01-20T02:20:05.159Z,1030.52
2017-01-20T02:21:15.868Z,1030.5
2017-01-20T02:22:26.570Z,1030.51
2017-01-20T02:23:37.299Z,1030.49
2017-01-20T02:24:48.030Z,1030.53
2017-01-20T02:25:58.759Z,1030.48
2017-01-20T02:27:09.480Z,1030.52
2017-01-20T02:28:20.201Z,1030.49
2017-01-20T02:29:30.922Z,1030.49
2017-01-20T02:30:41.635Z,1030.51
2017-01-20T02:31:52.339Z,1030.49
2017-01-20T02:33:03.466Z,1030.45
2017-01-20T02:34:14.234Z,1030.44
2017-01-20T02:35:24.960Z,1030.47
2017-01-20T02:36:36.051Z,1030.39
2017-01-20T02:37:46.748Z,1030.42
2017-01-20T02:38:57.483Z,1030.39
2017-01-20T02:40:08.233Z,1030.43
2017-01-20T02:41:18.987Z,1030.44
2017-01-20T02:42:29.706Z,1030.47
2017-01-20T02:43:40.421Z,1030.48
2017-01-20T02:44:51.170Z,1030.48
2017-01-20T02:46:01.919Z,1030.46
2017-01-20T02:47:12.661Z,1030.47
2017-01-20T02:48:23.361Z,1030.45
2017-01-20T02:49:34.107Z,1030.45
2017-01-20T02:50:44.849Z,1030.45
2017-01-20T02:51:55.562Z,1030.48
2017-01-20T02:53:06.308Z,1030.48
2017-01-20T02:54:17.041Z,1030.47
2017-01-20T02:55:27.775Z,1030.48
2017-01-20T02:56:38.498Z,1030.51
2017-01-20T02:57:49.221Z,1030.55
2017-01-20T02:58:59.945Z,1030.56
2017-01-20T03:00:10.687Z,1030.52
2017-01-20T03:01:21.458Z,1030.53
2017-01-20T03:02:32.212Z,1030.51
2017-01-20T03:03:42.951Z,1030.52
2017-01-20T03:04:53.704Z,1030.54
2017-01-20T03:06:04.444Z,1030.53
2017-01-20T03:07:15.190Z,1030.5
2017-01-20T03:08:25.917Z,1030.5
2017-01-20T03:09:36.658Z,1030.5
2017-01-20T03:10:47.351Z,1030.53
2017-01-20T03:11:58.077Z,1030.47
2017-01-20T03:13:08.790Z,1030.46
2017-01-20T03:14:19.518Z,1030.48
2017-01-20T03:15:30.265Z,1030.45
2017-01-20T03:16:40.990Z,1030.46
2017-01-20T03:17:51.725Z,1030.4
2017-01-20T03:19:02.449Z,1030.38
2017-01-20T03:20:13.191Z,1030.38
2017-01-20T03:21:23.912Z,1030.35
2017-01-20T03:22:35.015Z,1030.36
2017-01-20T03:23:45.741Z,1030.34
2017-01-20T03:24:56.488Z,1030.36
2017-01-20T03:26:07.232Z,1030.36
2017-01-20T03:27:17.974Z,1030.33
2017-01-20T03:28:28.672Z,1030.28
2017-01-20T03:29:39.416Z,1030.28
2017-01-20T03:30:50.155Z,1030.33
2017-01-20T03:32:00.876Z,1030.31
2017-01-20T03:33:11.601Z,1030.23
2017-01-20T03:34:22.355Z,1030.29
2017-01-20T03:35:33.072Z,1030.33
2017-01-20T03:36:43.787Z,1030.28
2017-01-20T03:37:54.496Z,1030.34
2017-01-20T03:39:05.210Z,1030.33
2017-01-20T03:40:15.927Z,1030.32
2017-01-20T03:41:26.648Z,1030.34
2017-01-20T03:42:37.377Z,1030.36
2017-01-20T03:43:48.094Z,1030.34
2017-01-20T03:44:58.819Z,1030.36
2017-01-20T03:46:09.539Z,1030.38
2017-01-20T03:47:20.286Z,1030.38
2017-01-20T03:48:31.004Z,1030.38
2017-01-20T03:49:41.717Z,1030.36
2017-01-20T03:50:52.445Z,1030.37
2017-01-20T03:52:03.159Z,1030.36
2017-01-20T03:53:13.893Z,1030.39
2017-01-20T03:54:24.629Z,1030.36
2017-01-20T03:55:35.354Z,1030.28
2017-01-20T03:56:46.068Z,1030.34
2017-01-20T03:57:56.797Z,1030.33
2017-01-20T03:59:07.490Z,1030.28
2017-01-20T04:00:18.616Z,1030.24
2017-01-20T04:01:29.335Z,1030.26
2017-01-20T04:02:40.027Z,1030.28
2017-01-20T04:03:50.798Z,1030.28
2017-01-20T04:05:01.541Z,1030.3
2017-01-20T04:06:12.262Z,1030.24
2017-01-20T04:07:22.985Z,1030.24
2017-01-20T04:08:33.711Z,1030.27
2017-01-20T04:09:44.428Z,1030.25
2017-01-20T04:10:55.152Z,1030.23
2017-01-20T04:12:05.873Z,1030.23
2017-01-20T04:13:16.586Z,1030.31
2017-01-20T04:14:27.293Z,1030.24
2017-01-20T04:15:38.011Z,1030.24
2017-01-20T04:16:48.758Z,1030.23
2017-01-20T04:17:59.497Z,1030.18
2017-01-20T04:19:10.195Z,1030.16
2017-01-20T04:20:20.922Z,1030.15
2017-01-20T04:21:31.661Z,1030.14
2017-01-20T04:22:42.391Z,1030.11
2017-01-20T04:23:53.111Z,1030.12
2017-01-20T04:25:03.824Z,1030.07
2017-01-20T04:26:14.553Z,1030.11
2017-01-20T04:27:25.270Z,1030.07
2017-01-20T04:28:36.009Z,1030.09
2017-01-20T04:29:46.740Z,1030.07
2017-01-20T04:30:57.450Z,1030.1
2017-01-20T04:32:08.196Z,1030.08
2017-01-20T04:33:18.891Z,1030.02
2017-01-20T04:34:29.625Z,1030.03
2017-01-20T04:35:40.358Z,1030.06
2017-01-20T04:36:51.065Z,1030.06
2017-01-20T04:38:01.802Z,1030.04
2017-01-20T04:39:12.531Z,1030.06
2017-01-20T04:40:23.253Z,1030.07
2017-01-20T04:41:33.987Z,1030.02
2017-01-20T04:42:44.691Z,1030.05
2017-01-20T04:43:55.430Z,1030.02
2017-01-20T04:45:06.150Z,1030.07
2017-01-20T04:46:16.883Z,1029.99
2017-01-20T04:47:27.593Z,1030.01
2017-01-20T04:48:38.321Z,1029.96
2017-01-20T04:49:49.072Z,1030.01
2017-01-20T04:50:59.792Z,1030.02
2017-01-20T04:52:10.538Z,1030.05
2017-01-20T04:53:21.276Z,1030.06
2017-01-20T04:54:32.001Z,1030.07
2017-01-20T04:55:42.703Z,1030.07
2017-01-20T04:56:53.465Z,1030.08
2017-01-20T04:58:04.165Z,1030.06
2017-01-20T04:59:14.862Z,1030.1
2017-01-20T05:00:25.579Z,1030.1
2017-01-20T05:01:36.321Z,1030.15
2017-01-20T05:02:47.070Z,1030.13
2017-01-20T05:03:57.792Z,1030.11
2017-01-20T05:05:08.546Z,1030.08
2017-01-20T05:06:19.287Z,1030.08
2017-01-20T05:07:30.019Z,1030.06
2017-01-20T05:08:40.737Z,1030.09
2017-01-20T05:09:51.454Z,1030.09
2017-01-20T05:11:02.168Z,1030.09
2017-01-20T05:12:12.885Z,1030.13
2017-01-20T05:13:23.610Z,1030.15
2017-01-20T05:14:34.364Z,1030.13
2017-01-20T05:15:45.081Z,1030.13
2017-01-20T05:16:55.808Z,1030.1
2017-01-20T05:18:06.550Z,1030.12
2017-01-20T05:19:17.649Z,1030.08
2017-01-20T05:20:28.383Z,1030.11
2017-01-20T05:21:39.111Z,1030.08
2017-01-20T05:22:50.236Z,1030.11
2017-01-20T05:24:00.958Z,1030.06
2017-01-20T05:25:11.703Z,1030.05
2017-01-20T05:26:22.449Z,1030.04
2017-01-20T05:27:33.171Z,1030.03
2017-01-20T05:28:43.891Z,1030.04
2017-01-20T05:29:54.628Z,1030.07
2017-01-20T05:31:05.333Z,1030.04
2017-01-20T05:32:16.076Z,1030.08
2017-01-20T05:33:26.799Z,1030.08
2017-01-20T05:34:37.546Z,1030.12
2017-01-20T05:35:48.257Z,1030.13
2017-01-20T05:36:58.981Z,1030.12
2017-01-20T05:38:09.709Z,1030.11
2017-01-20T05:39:20.449Z,1030.09
2017-01-20T05:40:31.170Z,1030.07
2017-01-20T05:41:41.890Z,1030.07
2017-01-20T05:42:52.633Z,1030.11
2017-01-20T05:44:03.362Z,1030.05
2017-01-20T05:45:14.088Z,1030.08
2017-01-20T05:46:24.824Z,1030.1
2017-01-20T05:47:35.547Z,1030.09
2017-01-20T05:48:46.271Z,1030.09
2017-01-20T05:49:57.013Z,1030.06
2017-01-20T05:51:08.141Z,1030.08
2017-01-20T05:52:18.863Z,1030.04
2017-01-20T05:53:29.583Z,1030.03
2017-01-20T05:54:40.293Z,1030.05
2017-01-20T05:55:51.021Z,1029.99
2017-01-20T05:57:01.768Z,1029.97
2017-01-20T05:58:12.493Z,1029.97
2017-01-20T05:59:23.219Z,1029.97
2017-01-20T06:00:33.981Z,1029.92
2017-01-20T06:01:44.695Z,1029.94
2017-01-20T06:02:55.403Z,1029.96
2017-01-20T06:04:06.115Z,1029.98
2017-01-20T06:05:16.836Z,1029.98
2017-01-20T06:06:27.566Z,1030
2017-01-20T06:07:38.285Z,1029.97
2017-01-20T06:08:49.008Z,1029.94
2017-01-20T06:10:00.154Z,1029.91
2017-01-20T06:11:10.917Z,1029.86
2017-01-20T06:12:21.642Z,1029.87
2017-01-20T06:13:32.388Z,1029.88
2017-01-20T06:14:43.105Z,1029.89
2017-01-20T06:15:53.822Z,1029.89
2017-01-20T06:17:04.543Z,1029.89
2017-01-20T06:18:15.275Z,1029.9
2017-01-20T06:19:26.017Z,1029.87
2017-01-20T06:20:36.742Z,1029.85
2017-01-20T06:21:47.457Z,1029.86
2017-01-20T06:22:58.156Z,1029.91
2017-01-20T06:24:08.844Z,1029.89
2017-01-20T06:25:19.549Z,1029.88
2017-01-20T06:26:30.265Z,1029.86
2017-01-20T06:27:40.997Z,1029.85
2017-01-20T06:28:51.735Z,1029.92
2017-01-20T06:30:02.460Z,1029.87
2017-01-20T06:31:13.196Z,1029.87
2017-01-20T06:32:23.923Z,1029.88
2017-01-20T06:33:34.645Z,1029.88
2017-01-20T06:34:45.361Z,1029.87
2017-01-20T06:35:56.079Z,1029.88
2017-01-20T06:37:06.825Z,1029.87
2017-01-20T06:38:17.549Z,1029.81
2017-01-20T06:39:28.292Z,1029.86
2017-01-20T06:40:38.992Z,1029.85
2017-01-20T06:41:49.713Z,1029.83
2017-01-20T06:43:00.437Z,1029.83
2017-01-20T06:44:11.136Z,1029.87
2017-01-20T06:45:21.872Z,1029.86
2017-01-20T06:46:32.568Z,1029.84
2017-01-20T06:47:43.267Z,1029.88
2017-01-20T06:48:54.010Z,1029.92
2017-01-20T06:50:04.742Z,1029.9
2017-01-20T06:51:15.505Z,1029.92
2017-01-20T06:52:26.234Z,1029.92
2017-01-20T06:53:36.980Z,1029.98
2017-01-20T06:54:47.726Z,1029.92
2017-01-20T06:55:58.469Z,1029.93
2017-01-20T06:57:09.567Z,1029.9
2017-01-20T06:58:20.281Z,1029.91
2017-01-20T06:59:31.007Z,1029.88
2017-01-20T07:00:41.745Z,1029.9
2017-01-20T07:01:52.478Z,1029.91
2017-01-20T07:03:03.191Z,1029.9
2017-01-20T07:04:13.919Z,1029.88
2017-01-20T07:05:24.657Z,1029.87
2017-01-20T07:06:35.388Z,1029.87
2017-01-20T07:07:46.131Z,1029.9
2017-01-20T07:08:56.874Z,1029.93
2017-01-20T07:10:07.601Z,1029.99
2017-01-20T07:11:18.321Z,1029.95
2017-01-20T07:12:29.033Z,1030.03
2017-01-20T07:13:39.759Z,1030.05
2017-01-20T07:14:50.500Z,1030.03
2017-01-20T07:16:01.219Z,1030.05
2017-01-20T07:17:11.921Z,1030.07
2017-01-20T07:18:22.642Z,1030.09
2017-01-20T07:19:33.356Z,1030.13
2017-01-20T07:20:44.080Z,1030.1
2017-01-20T07:21:54.781Z,1030.18
2017-01-20T07:23:05.503Z,1030.19
2017-01-20T07:24:16.226Z,1030.2
2017-01-20T07:25:26.944Z,1030.2
2017-01-20T07:26:37.661Z,1030.17
2017-01-20T07:27:48.386Z,1030.17
2017-01-20T07:28:59.085Z,1030.15
2017-01-20T07:30:09.823Z,1030.16
2017-01-20T07:31:20.582Z,1030.24
2017-01-20T07:32:31.288Z,1030.22
2017-01-20T07:33:42.008Z,1030.21
2017-01-20T07:34:52.762Z,1030.22
2017-01-20T07:36:03.459Z,1030.15
2017-01-20T07:37:14.175Z,1030.21
2017-01-20T07:38:24.880Z,1030.17
2017-01-20T07:39:35.596Z,1030.23
2017-01-20T07:40:46.310Z,1030.23
2017-01-20T07:41:57.033Z,1030.21
2017-01-20T07:43:07.729Z,1030.25
2017-01-20T07:44:18.459Z,1030.24
2017-01-20T07:45:29.193Z,1030.2
2017-01-20T07:46:39.952Z,1030.15
2017-01-20T07:47:51.064Z,1030.13
2017-01-20T07:49:01.789Z,1030.18
2017-01-20T07:50:12.528Z,1030.18
2017-01-20T07:51:23.278Z,1030.18
2017-01-20T07:52:34.006Z,1030.18
2017-01-20T07:53:44.726Z,1030.24
2017-01-20T07:54:55.412Z,1030.27
2017-01-20T07:56:06.118Z,1030.26
2017-01-20T07:57:16.812Z,1030.21
2017-01-20T07:58:27.535Z,1030.18
2017-01-20T07:59:38.248Z,1030.2
2017-01-20T08:00:48.973Z,1030.21
2017-01-20T08:01:59.694Z,1030.21
2017-01-20T08:03:10.436Z,1030.22
2017-01-20T08:04:21.164Z,1030.26
2017-01-20T08:05:32.260Z,1030.24
2017-01-20T08:06:42.982Z,1030.23
2017-01-20T08:07:53.716Z,1030.2
2017-01-20T08:09:04.420Z,1030.17
2017-01-20T08:10:15.144Z,1030.24
2017-01-20T08:11:25.867Z,1030.29
2017-01-20T08:12:36.605Z,1030.33
2017-01-20T08:13:47.348Z,1030.31
2017-01-20T08:14:58.103Z,1030.3
2017-01-20T08:16:08.844Z,1030.25
2017-01-20T08:17:19.565Z,1030.23
2017-01-20T08:18:30.686Z,1030.23
2017-01-20T08:19:41.411Z,1030.28
2017-01-20T08:20:52.130Z,1030.32
2017-01-20T08:22:02.876Z,1030.38
2017-01-20T08:23:13.586Z,1030.38
2017-01-20T08:24:24.310Z,1030.34
2017-01-20T08:25:35.063Z,1030.37
2017-01-20T08:26:45.807Z,1030.39
2017-01-20T08:27:56.526Z,1030.42
2017-01-20T08:29:07.247Z,1030.45
2017-01-20T08:30:17.991Z,1030.44
2017-01-20T08:31:28.788Z,1030.39
2017-01-20T08:32:39.532Z,1030.38
2017-01-20T08:33:50.272Z,1030.35
2017-01-20T08:35:00.997Z,1030.32
2017-01-20T08:36:11.743Z,1030.35
2017-01-20T08:37:22.446Z,1030.35
2017-01-20T08:38:33.189Z,1030.38
2017-01-20T08:39:43.910Z,1030.3
2017-01-20T08:40:54.655Z,1030.32
2017-01-20T08:42:05.405Z,1030.3
2017-01-20T08:43:16.147Z,1030.31
2017-01-20T08:44:26.863Z,1030.35
2017-01-20T08:45:37.617Z,1030.37
2017-01-20T08:46:48.342Z,1030.4
2017-01-20T08:47:59.055Z,1030.38
2017-01-20T08:49:09.779Z,1030.36
2017-01-20T08:50:20.517Z,1030.32
2017-01-20T08:51:31.246Z,1030.35
2017-01-20T08:52:41.993Z,1030.32
2017-01-20T08:53:52.706Z,1030.33
2017-01-20T08:55:03.464Z,1030.34
2017-01-20T08:56:14.173Z,1030.35
2017-01-20T08:57:24.919Z,1030.34
2017-01-20T08:58:35.672Z,1030.35
2017-01-20T08:59:46.408Z,1030.35
2017-01-20T09:00:57.136Z,1030.39
2017-01-20T09:02:07.877Z,1030.44
2017-01-20T09:03:18.979Z,1030.45
2017-01-20T09:04:29.667Z,1030.4
2017-01-20T09:05:40.375Z,1030.44
2017-01-20T09:06:51.087Z,1030.41
2017-01-20T09:08:01.842Z,1030.42
2017-01-20T09:09:12.579Z,1030.42
2017-01-20T09:10:23.322Z,1030.45
2017-01-20T09:11:34.049Z,1030.42
2017-01-20T09:12:44.764Z,1030.43
2017-01-20T09:13:55.517Z,1030.42
2017-01-20T09:15:06.255Z,1030.41
2017-01-20T09:16:16.985Z,1030.39
2017-01-20T09:17:27.680Z,1030.39
2017-01-20T09:18:38.393Z,1030.42
2017-01-20T09:19:49.118Z,1030.37
2017-01-20T09:20:59.847Z,1030.39
2017-01-20T09:22:10.582Z,1030.4
2017-01-20T09:23:21.340Z,1030.39
2017-01-20T09:24:32.085Z,1030.38
2017-01-20T09:25:42.830Z,1030.39
2017-01-20T09:26:53.549Z,1030.37
2017-01-20T09:28:04.265Z,1030.32
2017-01-20T09:29:15.015Z,1030.28
2017-01-20T09:30:25.717Z,1030.27
2017-01-20T09:31:36.441Z,1030.32
2017-01-20T09:32:47.183Z,1030.34
2017-01-20T09:33:57.920Z,1030.34
2017-01-20T09:35:08.653Z,1030.33
2017-01-20T09:36:19.383Z,1030.36
2017-01-20T09:37:30.134Z,1030.41
2017-01-20T09:38:40.856Z,1030.4
2017-01-20T09:39:51.609Z,1030.45
2017-01-20T09:41:02.325Z,1030.44
2017-01-20T09:42:13.067Z,1030.37
2017-01-20T09:43:23.825Z,1030.4
2017-01-20T09:44:34.556Z,1030.38
2017-01-20T09:45:45.281Z,1030.43
2017-01-20T09:46:56.009Z,1030.45
2017-01-20T09:48:06.777Z,1030.42
2017-01-20T09:49:17.479Z,1030.4
2017-01-20T09:50:28.222Z,1030.36
2017-01-20T09:51:38.957Z,1030.37
2017-01-20T09:52:49.654Z,1030.4
2017-01-20T09:54:00.382Z,1030.41
2017-01-20T09:55:11.107Z,1030.39
2017-01-20T09:56:21.817Z,1030.36
2017-01-20T09:57:32.542Z,1030.35
2017-01-20T09:58:43.267Z,1030.35
2017-01-20T09:59:53.988Z,1030.36
2017-01-20T10:01:04.705Z,1030.31
2017-01-20T10:02:15.433Z,1030.27
2017-01-20T10:03:26.176Z,1030.32
2017-01-20T10:04:36.889Z,1030.33
2017-01-20T10:05:47.626Z,1030.39
2017-01-20T10:06:58.364Z,1030.41
2017-01-20T10:08:09.085Z,1030.36
2017-01-20T10:09:19.807Z,1030.4
2017-01-20T10:10:30.552Z,1030.33
2017-01-20T10:11:41.252Z,1030.36
2017-01-20T10:12:51.990Z,1030.33
2017-01-20T10:14:02.711Z,1030.33
2017-01-20T10:15:13.461Z,1030.34
2017-01-20T10:16:24.207Z,1030.34
2017-01-20T10:17:34.932Z,1030.34
2017-01-20T10:18:45.654Z,1030.33
2017-01-20T10:19:56.370Z,1030.35
2017-01-20T10:21:07.516Z,1030.4
2017-01-20T10:22:18.265Z,1030.38
2017-01-20T10:23:29.005Z,1030.35
2017-01-20T10:24:39.729Z,1030.37
2017-01-20T10:25:50.453Z,1030.36
2017-01-20T10:27:01.196Z,1030.35
2017-01-20T10:28:11.946Z,1030.36
2017-01-20T10:29:22.688Z,1030.29
2017-01-20T10:30:33.409Z,1030.31
2017-01-20T10:31:44.130Z,1030.3
2017-01-20T10:32:54.823Z,1030.34
2017-01-20T10:34:05.576Z,1030.33
2017-01-20T10:35:16.318Z,1030.32
2017-01-20T10:36:27.038Z,1030.31
2017-01-20T10:37:37.755Z,1030.33
2017-01-20T10:38:48.485Z,1030.37
2017-01-20T10:39:59.202Z,1030.26
2017-01-20T10:41:09.944Z,1030.31
2017-01-20T10:42:20.677Z,1030.3
2017-01-20T10:43:31.419Z,1030.25
2017-01-20T10:44:42.179Z,1030.25
2017-01-20T10:45:53.299Z,1030.22
2017-01-20T10:47:04.031Z,1030.24
2017-01-20T10:48:14.774Z,1030.25
2017-01-20T10:49:25.527Z,1030.18
2017-01-20T10:50:36.267Z,1030.13
2017-01-20T10:51:47.015Z,1030.16
2017-01-20T10:52:57.779Z,1030.15
2017-01-20T10:54:08.528Z,1030.11
2017-01-20T10:55:19.275Z,1030.14
2017-01-20T10:56:29.974Z,1030.12
2017-01-20T10:57:40.692Z,1030.12
2017-01-20T10:58:51.391Z,1030.12
2017-01-20T11:00:02.113Z,1030.18
2017-01-20T11:01:12.861Z,1030.16
2017-01-20T11:02:23.605Z,1030.13
2017-01-20T11:03:34.347Z,1030.11
2017-01-20T11:04:45.118Z,1030.06
2017-01-20T11:05:55.865Z,1030.02
2017-01-20T11:07:06.589Z,1030.01
2017-01-20T11:08:17.314Z,1030.05
2017-01-20T11:09:28.049Z,1030.09
2017-01-20T11:10:38.795Z,1030.1
2017-01-20T11:11:49.523Z,1029.98
2017-01-20T11:13:00.240Z,1030.02
2017-01-20T11:14:10.972Z,1029.99
2017-01-20T11:15:21.679Z,1030
2017-01-20T11:16:32.400Z,1030.01
2017-01-20T11:17:43.125Z,1029.97
2017-01-20T11:18:53.871Z,1029.97
2017-01-20T11:20:04.617Z,1029.99
2017-01-20T11:21:15.341Z,1030.02
2017-01-20T11:22:26.088Z,1030.01
2017-01-20T11:23:36.826Z,1030.01
2017-01-20T11:24:47.575Z,1029.97
2017-01-20T11:25:58.693Z,1029.93
2017-01-20T11:27:09.394Z,1029.91
2017-01-20T11:28:20.097Z,1029.93
2017-01-20T11:29:30.835Z,1029.92
2017-01-20T11:30:41.585Z,1029.92
2017-01-20T11:31:52.330Z,1029.87
2017-01-20T11:33:03.058Z,1029.87
2017-01-20T11:34:13.794Z,1029.93
2017-01-20T11:35:24.519Z,1029.88
2017-01-20T11:36:35.253Z,1029.91
2017-01-20T11:37:45.989Z,1029.89
2017-01-20T11:38:56.754Z,1029.88
2017-01-20T11:40:07.467Z,1029.86
2017-01-20T11:41:18.179Z,1029.84
2017-01-20T11:42:28.941Z,1029.85
2017-01-20T11:43:39.684Z,1029.91
2017-01-20T11:44:50.429Z,1029.92
2017-01-20T11:46:01.159Z,1029.89
2017-01-20T11:47:11.926Z,1029.88
2017-01-20T11:48:22.668Z,1029.84
2017-01-20T11:49:33.368Z,1029.81
2017-01-20T11:50:44.093Z,1029.74
2017-01-20T11:51:54.811Z,1029.71
2017-01-20T11:53:05.560Z,1029.68
2017-01-20T11:54:16.301Z,1029.64
2017-01-20T11:55:27.023Z,1029.62
2017-01-20T11:56:37.753Z,1029.65
2017-01-20T11:57:48.494Z,1029.65
2017-01-20T11:58:59.614Z,1029.68
2017-01-20T12:00:10.353Z,1029.72
2017-01-20T12:01:21.103Z,1029.68
2017-01-20T12:02:31.853Z,1029.68
2017-01-20T12:03:42.579Z,1029.64
2017-01-20T12:04:53.294Z,1029.63
2017-01-20T12:06:04.392Z,1029.65
2017-01-20T12:07:15.111Z,1029.58
2017-01-20T12:08:25.849Z,1029.58
2017-01-20T12:09:36.595Z,1029.6
2017-01-20T12:10:47.345Z,1029.62
2017-01-20T12:11:58.066Z,1029.63
2017-01-20T12:13:08.791Z,1029.54
2017-01-20T12:14:19.517Z,1029.54
2017-01-20T12:15:30.247Z,1029.56
2017-01-20T12:16:40.971Z,1029.52
2017-01-20T12:17:51.714Z,1029.51
2017-01-20T12:19:02.423Z,1029.54
2017-01-20T12:20:13.166Z,1029.54
2017-01-20T12:21:23.909Z,1029.54
2017-01-20T12:22:34.636Z,1029.52
2017-01-20T12:23:45.353Z,1029.51
2017-01-20T12:24:56.073Z,1029.48
2017-01-20T12:26:06.818Z,1029.49
2017-01-20T12:27:17.535Z,1029.46
2017-01-20T12:28:28.302Z,1029.45
2017-01-20T12:29:39.023Z,1029.43
2017-01-20T12:30:49.752Z,1029.38
2017-01-20T12:32:00.497Z,1029.37
2017-01-20T12:33:11.194Z,1029.29
2017-01-20T12:34:21.918Z,1029.39
2017-01-20T12:35:32.640Z,1029.34
2017-01-20T12:36:43.385Z,1029.33
2017-01-20T12:37:54.131Z,1029.32
2017-01-20T12:39:04.879Z,1029.29
2017-01-20T12:40:15.623Z,1029.3
2017-01-20T12:41:26.358Z,1029.31
2017-01-20T12:42:37.087Z,1029.29
2017-01-20T12:43:47.786Z,1029.25
2017-01-20T12:44:58.521Z,1029.23
2017-01-20T12:46:09.242Z,1029.24
2017-01-20T12:47:19.942Z,1029.23
2017-01-20T12:48:30.671Z,1029.24
2017-01-20T12:49:41.419Z,1029.21
2017-01-20T12:50:52.163Z,1029.19
2017-01-20T12:52:02.880Z,1029.25
2017-01-20T12:53:13.605Z,1029.24
2017-01-20T12:54:24.325Z,1029.16
2017-01-20T12:55:35.087Z,1029.17
2017-01-20T12:56:45.818Z,1029.17
2017-01-20T12:57:56.556Z,1029.22
2017-01-20T12:59:07.303Z,1029.26
2017-01-20T13:00:18.022Z,1029.2
2017-01-20T13:01:28.752Z,1029.17
2017-01-20T13:02:39.470Z,1029.2
2017-01-20T13:03:50.194Z,1029.2
2017-01-20T13:05:00.887Z,1029.23
2017-01-20T13:06:11.601Z,1029.21
2017-01-20T13:07:22.321Z,1029.17
2017-01-20T13:08:33.026Z,1029.18
2017-01-20T13:09:43.763Z,1029.18
2017-01-20T13:10:54.493Z,1029.17
2017-01-20T13:12:05.213Z,1029.15
2017-01-20T13:13:15.952Z,1029.18
2017-01-20T13:14:26.681Z,1029.15
2017-01-20T13:15:37.419Z,1029.14
2017-01-20T13:16:48.122Z,1029.12
2017-01-20T13:17:58.865Z,1029.12
2017-01-20T13:19:09.585Z,1029.04
2017-01-20T13:20:20.342Z,1029.11
2017-01-20T13:21:31.081Z,1029.12
2017-01-20T13:22:41.803Z,1029.13
2017-01-20T13:23:52.523Z,1029.12
2017-01-20T13:25:03.301Z,1029.14
2017-01-20T13:26:14.020Z,1029.13
2017-01-20T13:27:24.737Z,1029.19
2017-01-20T13:28:35.461Z,1029.15
2017-01-20T13:29:46.172Z,1029.16
2017-01-20T13:30:56.878Z,1029.14
2017-01-20T13:32:07.616Z,1029.15
2017-01-20T13:33:18.342Z,1029.13
2017-01-20T13:34:29.038Z,1029.12
2017-01-20T13:35:39.784Z,1029.11
2017-01-20T13:36:50.486Z,1029.09
2017-01-20T13:38:01.208Z,1029.09
2017-01-20T13:39:11.947Z,1029.1
2017-01-20T13:40:22.660Z,1029.08
2017-01-20T13:41:33.389Z,1029.06
2017-01-20T13:42:44.113Z,1029.05
2017-01-20T13:43:54.832Z,1029.08
2017-01-20T13:45:05.556Z,1029.06
2017-01-20T13:46:16.317Z,1029.08
2017-01-20T13:47:27.020Z,1029.08
2017-01-20T13:48:37.761Z,1029.02
2017-01-20T13:49:48.916Z,1029.07
2017-01-20T13:50:59.628Z,1029.03
2017-01-20T13:52:10.357Z,1029.04
2017-01-20T13:53:21.078Z,1029.04
2017-01-20T13:54:31.815Z,1029.05
2017-01-20T13:55:42.559Z,1029.03
2017-01-20T13:56:53.265Z,1029.02
2017-01-20T13:58:03.976Z,1029.03
2017-01-20T13:59:14.705Z,1028.97
2017-01-20T14:00:25.418Z,1028.95
2017-01-20T14:01:36.150Z,1028.93
2017-01-20T14:02:46.861Z,1028.98
2017-01-20T14:03:57.572Z,1029.02
2017-01-20T14:05:08.305Z,1029.04
2017-01-20T14:06:19.010Z,1029.03
2017-01-20T14:07:29.731Z,1028.97
2017-01-20T14:08:40.443Z,1029.02
2017-01-20T14:09:51.186Z,1029.03
2017-01-20T14:11:02.292Z,1029.05
2017-01-20T14:12:13.039Z,1029
2017-01-20T14:13:23.781Z,1028.97
2017-01-20T14:14:34.506Z,1028.95
2017-01-20T14:15:45.223Z,1028.96
2017-01-20T14:16:55.940Z,1028.97
2017-01-20T14:18:06.661Z,1028.96